sensor_id;sensor_type;location;lat;lon;timestamp;P1;durP1;ratioP1;P2;durP2;ratioP2
28605;SDS011;46498;49.968;7.754;2023-04-25T00:02:08;11.38;;;6.35;;
28605;SDS011;46498;49.968;7.754;2023-04-25T00:07:09;15.35;;;8.27;;
28605;SDS011;46498;49.968;7.754;2023-04-25T00:12:11;13.75;;;7.60;;
28605;SDS011;46498;49.968;7.754;2023-04-25T00:17:12;13.73;;;8.02;;
28605;SDS011;46498;49.968;7.754;2023-04-25T00:22:13;14.50;;;7.07;;
28605;SDS011;46498;49.968;7.754;2023-04-25T00:27:13;13.88;;;7.43;;
28605;SDS011;46498;49.968;7.754;2023-04-25T00:32:14;14.45;;;7.60;;
28605;SDS011;46498;49.968;7.754;2023-04-25T00:37:15;13.50;;;7.87;;
28605;SDS011;46498;49.968;7.754;2023-04-25T00:42:16;13.90;;;7.80;;
28605;SDS011;46498;49.968;7.754;2023-04-25T00:47:17;11.88;;;7.65;;
28605;SDS011;46498;49.968;7.754;2023-04-25T00:52:18;12.13;;;7.18;;
28605;SDS011;46498;49.968;7.754;2023-04-25T00:57:19;14.10;;;7.85;;
28605;SDS011;46498;49.968;7.754;2023-04-25T01:02:20;17.02;;;9.23;;
28605;SDS011;46498;49.968;7.754;2023-04-25T01:07:22;14.57;;;8.57;;
28605;SDS011;46498;49.968;7.754;2023-04-25T01:12:23;13.55;;;8.35;;
28605;SDS011;46498;49.968;7.754;2023-04-25T01:17:24;16.92;;;7.68;;
28605;SDS011;46498;49.968;7.754;2023-04-25T01:22:25;15.05;;;9.15;;
28605;SDS011;46498;49.968;7.754;2023-04-25T01:27:26;16.12;;;9.32;;
28605;SDS011;46498;49.968;7.754;2023-04-25T01:32:28;17.83;;;10.23;;
28605;SDS011;46498;49.968;7.754;2023-04-25T01:37:29;17.45;;;9.70;;
28605;SDS011;46498;49.968;7.754;2023-04-25T01:42:29;18.48;;;10.30;;
28605;SDS011;46498;49.968;7.754;2023-04-25T01:47:30;16.55;;;9.70;;
28605;SDS011;46498;49.968;7.754;2023-04-25T01:52:33;21.37;;;10.95;;
28605;SDS011;46498;49.968;7.754;2023-04-25T01:57:38;17.10;;;9.18;;
28605;SDS011;46498;49.968;7.754;2023-04-25T02:02:39;17.27;;;9.43;;
28605;SDS011;46498;49.968;7.754;2023-04-25T02:07:58;16.75;;;8.20;;
28605;SDS011;46498;49.968;7.754;2023-04-25T02:13:01;19.10;;;10.53;;
28605;SDS011;46498;49.968;7.754;2023-04-25T02:18:21;19.58;;;11.02;;
28605;SDS011;46498;49.968;7.754;2023-04-25T02:23:22;19.73;;;10.60;;
28605;SDS011;46498;49.968;7.754;2023-04-25T02:28:23;18.48;;;11.18;;
28605;SDS011;46498;49.968;7.754;2023-04-25T02:33:25;20.50;;;12.07;;
28605;SDS011;46498;49.968;7.754;2023-04-25T02:38:25;17.75;;;10.55;;
28605;SDS011;46498;49.968;7.754;2023-04-25T02:43:26;19.02;;;11.23;;
28605;SDS011;46498;49.968;7.754;2023-04-25T02:48:27;18.60;;;10.50;;
28605;SDS011;46498;49.968;7.754;2023-04-25T02:53:29;24.77;;;11.63;;
28605;SDS011;46498;49.968;7.754;2023-04-25T02:58:31;20.12;;;11.60;;
28605;SDS011;46498;49.968;7.754;2023-04-25T03:03:31;22.67;;;12.10;;
28605;SDS011;46498;49.968;7.754;2023-04-25T03:08:32;26.12;;;12.60;;
28605;SDS011;46498;49.968;7.754;2023-04-25T03:13:35;21.27;;;12.80;;
28605;SDS011;46498;49.968;7.754;2023-04-25T03:18:36;23.02;;;12.15;;
28605;SDS011;46498;49.968;7.754;2023-04-25T03:23:37;21.80;;;11.70;;
28605;SDS011;46498;49.968;7.754;2023-04-25T03:28:38;21.50;;;12.10;;
28605;SDS011;46498;49.968;7.754;2023-04-25T03:33:43;24.23;;;13.25;;
28605;SDS011;46498;49.968;7.754;2023-04-25T03:38:44;20.67;;;11.63;;
28605;SDS011;46498;49.968;7.754;2023-04-25T03:43:46;21.25;;;12.43;;
28605;SDS011;46498;49.968;7.754;2023-04-25T03:48:47;20.92;;;11.77;;
28605;SDS011;46498;49.968;7.754;2023-04-25T03:53:53;28.17;;;14.95;;
28605;SDS011;46498;49.968;7.754;2023-04-25T03:59:23;28.30;;;14.27;;
28605;SDS011;46498;49.968;7.754;2023-04-25T04:04:25;26.00;;;13.45;;
28605;SDS011;46498;49.968;7.754;2023-04-25T04:09:26;25.42;;;14.35;;
28605;SDS011;46498;49.968;7.754;2023-04-25T04:14:29;24.43;;;13.70;;
28605;SDS011;46498;49.968;7.754;2023-04-25T04:19:30;25.20;;;12.02;;
28605;SDS011;46498;49.968;7.754;2023-04-25T04:24:44;22.50;;;12.32;;
28605;SDS011;46498;49.968;7.754;2023-04-25T04:29:50;20.85;;;12.90;;
28605;SDS011;46498;49.968;7.754;2023-04-25T04:35:04;26.60;;;13.20;;
28605;SDS011;46498;49.968;7.754;2023-04-25T04:45:23;26.90;;;10.55;;
28605;SDS011;46498;49.968;7.754;2023-04-25T04:50:43;19.12;;;8.23;;
28605;SDS011;46498;49.968;7.754;2023-04-25T04:55:59;25.10;;;7.72;;
28605;SDS011;46498;49.968;7.754;2023-04-25T05:02:22;15.30;;;6.80;;
28605;SDS011;46498;49.968;7.754;2023-04-25T05:07:41;17.02;;;6.62;;
28605;SDS011;46498;49.968;7.754;2023-04-25T05:13:00;17.10;;;6.62;;
28605;SDS011;46498;49.968;7.754;2023-04-25T05:19:22;19.02;;;6.50;;
28605;SDS011;46498;49.968;7.754;2023-04-25T05:25:57;16.33;;;7.50;;
28605;SDS011;46498;49.968;7.754;2023-04-25T05:31:14;23.85;;;7.93;;
28605;SDS011;46498;49.968;7.754;2023-04-25T05:36:29;26.33;;;8.40;;
28605;SDS011;46498;49.968;7.754;2023-04-25T05:41:31;22.47;;;8.33;;
28605;SDS011;46498;49.968;7.754;2023-04-25T05:46:36;19.42;;;7.82;;
28605;SDS011;46498;49.968;7.754;2023-04-25T05:51:58;21.52;;;8.77;;
28605;SDS011;46498;49.968;7.754;2023-04-25T05:57:24;21.98;;;8.25;;
28605;SDS011;46498;49.968;7.754;2023-04-25T06:02:27;25.85;;;7.78;;
28605;SDS011;46498;49.968;7.754;2023-04-25T06:07:29;21.58;;;7.18;;
28605;SDS011;46498;49.968;7.754;2023-04-25T06:12:31;21.67;;;6.78;;
28605;SDS011;46498;49.968;7.754;2023-04-25T06:17:32;18.40;;;6.45;;
28605;SDS011;46498;49.968;7.754;2023-04-25T06:22:34;16.37;;;5.05;;
28605;SDS011;46498;49.968;7.754;2023-04-25T06:27:36;20.35;;;5.15;;
28605;SDS011;46498;49.968;7.754;2023-04-25T06:32:38;16.02;;;6.03;;
28605;SDS011;46498;49.968;7.754;2023-04-25T06:37:39;11.73;;;3.70;;
28605;SDS011;46498;49.968;7.754;2023-04-25T06:42:41;14.35;;;4.18;;
28605;SDS011;46498;49.968;7.754;2023-04-25T06:48:28;16.50;;;4.28;;
28605;SDS011;46498;49.968;7.754;2023-04-25T06:53:29;18.20;;;4.28;;
28605;SDS011;46498;49.968;7.754;2023-04-25T06:58:33;13.18;;;4.07;;
28605;SDS011;46498;49.968;7.754;2023-04-25T07:03:42;12.02;;;4.07;;
28605;SDS011;46498;49.968;7.754;2023-04-25T07:08:48;12.95;;;3.70;;
28605;SDS011;46498;49.968;7.754;2023-04-25T07:13:50;12.70;;;3.97;;
28605;SDS011;46498;49.968;7.754;2023-04-25T07:18:51;12.95;;;3.75;;
28605;SDS011;46498;49.968;7.754;2023-04-25T07:23:53;14.02;;;3.60;;
28605;SDS011;46498;49.968;7.754;2023-04-25T07:28:57;14.70;;;3.80;;
28605;SDS011;46498;49.968;7.754;2023-04-25T07:33:59;15.77;;;3.50;;
28605;SDS011;46498;49.968;7.754;2023-04-25T07:39:02;11.70;;;3.03;;
28605;SDS011;46498;49.968;7.754;2023-04-25T07:44:04;11.93;;;4.10;;
28605;SDS011;46498;49.968;7.754;2023-04-25T07:49:05;14.00;;;3.97;;
28605;SDS011;46498;49.968;7.754;2023-04-25T07:54:08;10.20;;;3.70;;
28605;SDS011;46498;49.968;7.754;2023-04-25T07:59:10;9.05;;;3.45;;
28605;SDS011;46498;49.968;7.754;2023-04-25T08:04:12;11.57;;;3.40;;
28605;SDS011;46498;49.968;7.754;2023-04-25T08:09:27;11.00;;;3.70;;
28605;SDS011;46498;49.968;7.754;2023-04-25T08:14:29;10.00;;;3.53;;
28605;SDS011;46498;49.968;7.754;2023-04-25T08:19:36;14.57;;;4.60;;
28605;SDS011;46498;49.968;7.754;2023-04-25T08:24:38;9.55;;;3.95;;
28605;SDS011;46498;49.968;7.754;2023-04-25T08:29:41;15.45;;;4.62;;
28605;SDS011;46498;49.968;7.754;2023-04-25T08:34:43;9.45;;;3.45;;
28605;SDS011;46498;49.968;7.754;2023-04-25T08:39:44;9.02;;;3.80;;
28605;SDS011;46498;49.968;7.754;2023-04-25T08:45:00;8.32;;;3.83;;
28605;SDS011;46498;49.968;7.754;2023-04-25T08:50:06;11.48;;;3.75;;
28605;SDS011;46498;49.968;7.754;2023-04-25T08:55:09;12.95;;;4.70;;
28605;SDS011;46498;49.968;7.754;2023-04-25T09:00:13;8.55;;;3.65;;
28605;SDS011;46498;49.968;7.754;2023-04-25T09:05:16;10.30;;;4.57;;
28605;SDS011;46498;49.968;7.754;2023-04-25T09:10:25;12.27;;;4.00;;
28605;SDS011;46498;49.968;7.754;2023-04-25T09:15:27;8.90;;;3.70;;
28605;SDS011;46498;49.968;7.754;2023-04-25T09:20:43;9.65;;;4.28;;
28605;SDS011;46498;49.968;7.754;2023-04-25T09:26:03;11.45;;;4.05;;
28605;SDS011;46498;49.968;7.754;2023-04-25T09:31:10;11.48;;;4.32;;
28605;SDS011;46498;49.968;7.754;2023-04-25T09:36:18;11.93;;;4.57;;
28605;SDS011;46498;49.968;7.754;2023-04-25T09:41:37;15.77;;;5.05;;
28605;SDS011;46498;49.968;7.754;2023-04-25T09:46:39;12.82;;;4.80;;
28605;SDS011;46498;49.968;7.754;2023-04-25T09:51:56;13.18;;;5.32;;
28605;SDS011;46498;49.968;7.754;2023-04-25T09:57:03;11.57;;;5.10;;
28605;SDS011;46498;49.968;7.754;2023-04-25T10:02:13;14.00;;;4.82;;
28605;SDS011;46498;49.968;7.754;2023-04-25T10:07:18;16.25;;;4.22;;
28605;SDS011;46498;49.968;7.754;2023-04-25T10:12:21;12.18;;;3.70;;
28605;SDS011;46498;49.968;7.754;2023-04-25T10:17:22;14.35;;;3.58;;
28605;SDS011;46498;49.968;7.754;2023-04-25T10:22:31;10.25;;;3.67;;
28605;SDS011;46498;49.968;7.754;2023-04-25T10:27:35;20.80;;;4.50;;
28605;SDS011;46498;49.968;7.754;2023-04-25T10:32:37;15.15;;;3.72;;
28605;SDS011;46498;49.968;7.754;2023-04-25T10:37:56;15.50;;;3.58;;
28605;SDS011;46498;49.968;7.754;2023-04-25T10:48:34;17.05;;;4.18;;
28605;SDS011;46498;49.968;7.754;2023-04-25T10:53:35;23.73;;;6.50;;
28605;SDS011;46498;49.968;7.754;2023-04-25T10:58:36;26.52;;;6.43;;
28605;SDS011;46498;49.968;7.754;2023-04-25T11:03:42;41.25;;;11.30;;
28605;SDS011;46498;49.968;7.754;2023-04-25T11:08:47;36.75;;;10.57;;
28605;SDS011;46498;49.968;7.754;2023-04-25T11:13:51;16.65;;;5.72;;
28605;SDS011;46498;49.968;7.754;2023-04-25T11:18:51;24.12;;;7.43;;
28605;SDS011;46498;49.968;7.754;2023-04-25T11:23:53;18.37;;;5.72;;
28605;SDS011;46498;49.968;7.754;2023-04-25T11:28:58;15.73;;;5.10;;
28605;SDS011;46498;49.968;7.754;2023-04-25T11:34:01;14.87;;;4.90;;
28605;SDS011;46498;49.968;7.754;2023-04-25T11:39:03;14.50;;;4.50;;
28605;SDS011;46498;49.968;7.754;2023-04-25T11:44:04;11.82;;;3.60;;
28605;SDS011;46498;49.968;7.754;2023-04-25T11:49:06;10.82;;;4.30;;
28605;SDS011;46498;49.968;7.754;2023-04-25T11:54:06;9.80;;;3.85;;
28605;SDS011;46498;49.968;7.754;2023-04-25T11:59:07;11.93;;;4.65;;
28605;SDS011;46498;49.968;7.754;2023-04-25T12:04:19;11.27;;;3.30;;
28605;SDS011;46498;49.968;7.754;2023-04-25T12:09:28;14.30;;;4.07;;
28605;SDS011;46498;49.968;7.754;2023-04-25T12:14:32;14.13;;;3.65;;
28605;SDS011;46498;49.968;7.754;2023-04-25T12:24:36;10.35;;;4.28;;
28605;SDS011;46498;49.968;7.754;2023-04-25T12:29:39;10.95;;;2.85;;
28605;SDS011;46498;49.968;7.754;2023-04-25T12:34:53;13.25;;;3.33;;
28605;SDS011;46498;49.968;7.754;2023-04-25T12:39:54;26.50;;;7.28;;
28605;SDS011;46498;49.968;7.754;2023-04-25T12:44:55;10.88;;;2.60;;
28605;SDS011;46498;49.968;7.754;2023-04-25T12:49:57;16.75;;;4.57;;
28605;SDS011;46498;49.968;7.754;2023-04-25T12:54:58;14.32;;;4.00;;
28605;SDS011;46498;49.968;7.754;2023-04-25T12:59:58;16.50;;;3.30;;
28605;SDS011;46498;49.968;7.754;2023-04-25T13:04:59;14.55;;;3.33;;
28605;SDS011;46498;49.968;7.754;2023-04-25T13:10:00;14.63;;;3.33;;
28605;SDS011;46498;49.968;7.754;2023-04-25T13:15:03;10.27;;;2.60;;
28605;SDS011;46498;49.968;7.754;2023-04-25T13:20:05;5.87;;;1.90;;
28605;SDS011;46498;49.968;7.754;2023-04-25T13:25:09;6.78;;;2.03;;
28605;SDS011;46498;49.968;7.754;2023-04-25T13:30:10;19.85;;;4.65;;
28605;SDS011;46498;49.968;7.754;2023-04-25T13:35:11;12.15;;;3.15;;
28605;SDS011;46498;49.968;7.754;2023-04-25T13:40:14;6.30;;;2.20;;
28605;SDS011;46498;49.968;7.754;2023-04-25T13:45:15;8.73;;;2.42;;
28605;SDS011;46498;49.968;7.754;2023-04-25T13:50:16;6.47;;;1.80;;
28605;SDS011;46498;49.968;7.754;2023-04-25T13:55:17;16.75;;;2.95;;
28605;SDS011;46498;49.968;7.754;2023-04-25T14:00:18;7.35;;;2.10;;
28605;SDS011;46498;49.968;7.754;2023-04-25T14:05:20;6.43;;;2.35;;
28605;SDS011;46498;49.968;7.754;2023-04-25T14:10:21;9.88;;;2.42;;
28605;SDS011;46498;49.968;7.754;2023-04-25T14:15:22;9.77;;;2.85;;
28605;SDS011;46498;49.968;7.754;2023-04-25T14:20:23;8.45;;;2.30;;
28605;SDS011;46498;49.968;7.754;2023-04-25T14:25:25;11.55;;;2.35;;
28605;SDS011;46498;49.968;7.754;2023-04-25T14:30:26;14.48;;;3.22;;
28605;SDS011;46498;49.968;7.754;2023-04-25T14:35:27;10.00;;;2.30;;
28605;SDS011;46498;49.968;7.754;2023-04-25T14:40:28;11.12;;;2.60;;
28605;SDS011;46498;49.968;7.754;2023-04-25T14:45:29;10.88;;;2.97;;
28605;SDS011;46498;49.968;7.754;2023-04-25T14:50:30;14.75;;;2.95;;
28605;SDS011;46498;49.968;7.754;2023-04-25T14:55:31;11.63;;;2.15;;
28605;SDS011;46498;49.968;7.754;2023-04-25T15:00:32;14.30;;;2.45;;
28605;SDS011;46498;49.968;7.754;2023-04-25T15:05:34;10.77;;;2.92;;
28605;SDS011;46498;49.968;7.754;2023-04-25T15:10:34;10.50;;;2.47;;
28605;SDS011;46498;49.968;7.754;2023-04-25T15:15:35;8.48;;;2.62;;
28605;SDS011;46498;49.968;7.754;2023-04-25T15:20:36;8.48;;;2.20;;
28605;SDS011;46498;49.968;7.754;2023-04-25T15:25:37;10.27;;;2.10;;
28605;SDS011;46498;49.968;7.754;2023-04-25T15:30:38;13.45;;;2.15;;
28605;SDS011;46498;49.968;7.754;2023-04-25T15:35:39;10.27;;;1.87;;
28605;SDS011;46498;49.968;7.754;2023-04-25T15:40:40;11.60;;;2.00;;
28605;SDS011;46498;49.968;7.754;2023-04-25T15:45:41;11.63;;;2.12;;
28605;SDS011;46498;49.968;7.754;2023-04-25T15:50:42;8.38;;;2.10;;
28605;SDS011;46498;49.968;7.754;2023-04-25T15:55:43;8.52;;;1.95;;
28605;SDS011;46498;49.968;7.754;2023-04-25T16:00:44;11.12;;;4.10;;
28605;SDS011;46498;49.968;7.754;2023-04-25T16:05:48;21.65;;;10.93;;
28605;SDS011;46498;49.968;7.754;2023-04-25T16:10:49;39.10;;;15.52;;
28605;SDS011;46498;49.968;7.754;2023-04-25T16:15:50;26.77;;;11.12;;
28605;SDS011;46498;49.968;7.754;2023-04-25T16:20:51;13.43;;;4.47;;
28605;SDS011;46498;49.968;7.754;2023-04-25T16:25:53;15.82;;;3.85;;
28605;SDS011;46498;49.968;7.754;2023-04-25T16:30:54;12.82;;;3.55;;
28605;SDS011;46498;49.968;7.754;2023-04-25T16:35:55;15.32;;;4.05;;
28605;SDS011;46498;49.968;7.754;2023-04-25T16:40:56;16.48;;;4.60;;
28605;SDS011;46498;49.968;7.754;2023-04-25T16:45:58;15.02;;;3.87;;
28605;SDS011;46498;49.968;7.754;2023-04-25T16:50:59;13.15;;;3.42;;
28605;SDS011;46498;49.968;7.754;2023-04-25T16:56:00;11.70;;;3.25;;
28605;SDS011;46498;49.968;7.754;2023-04-25T17:01:01;16.02;;;4.60;;
28605;SDS011;46498;49.968;7.754;2023-04-25T17:06:02;14.18;;;2.92;;
28605;SDS011;46498;49.968;7.754;2023-04-25T17:11:03;13.05;;;3.20;;
28605;SDS011;46498;49.968;7.754;2023-04-25T17:16:05;14.95;;;3.50;;
28605;SDS011;46498;49.968;7.754;2023-04-25T17:21:06;11.50;;;3.22;;
28605;SDS011;46498;49.968;7.754;2023-04-25T17:26:08;13.23;;;2.90;;
28605;SDS011;46498;49.968;7.754;2023-04-25T17:31:09;12.57;;;3.72;;
28605;SDS011;46498;49.968;7.754;2023-04-25T17:36:10;23.62;;;9.23;;
28605;SDS011;46498;49.968;7.754;2023-04-25T17:41:11;14.43;;;5.35;;
28605;SDS011;46498;49.968;7.754;2023-04-25T17:46:14;11.60;;;4.05;;
28605;SDS011;46498;49.968;7.754;2023-04-25T17:51:15;14.13;;;5.25;;
28605;SDS011;46498;49.968;7.754;2023-04-25T17:56:16;11.48;;;2.97;;
28605;SDS011;46498;49.968;7.754;2023-04-25T18:01:28;9.73;;;3.28;;
28605;SDS011;46498;49.968;7.754;2023-04-25T18:06:29;13.32;;;3.75;;
28605;SDS011;46498;49.968;7.754;2023-04-25T18:11:32;11.40;;;2.87;;
28605;SDS011;46498;49.968;7.754;2023-04-25T18:16:33;9.43;;;3.72;;
28605;SDS011;46498;49.968;7.754;2023-04-25T18:21:34;9.98;;;2.17;;
28605;SDS011;46498;49.968;7.754;2023-04-25T18:26:35;8.45;;;3.42;;
28605;SDS011;46498;49.968;7.754;2023-04-25T18:31:36;30.27;;;16.92;;
28605;SDS011;46498;49.968;7.754;2023-04-25T18:36:38;34.42;;;16.85;;
28605;SDS011;46498;49.968;7.754;2023-04-25T18:41:40;30.17;;;12.30;;
28605;SDS011;46498;49.968;7.754;2023-04-25T18:46:56;19.40;;;7.93;;
28605;SDS011;46498;49.968;7.754;2023-04-25T18:51:57;15.57;;;5.32;;
28605;SDS011;46498;49.968;7.754;2023-04-25T18:56:58;22.10;;;9.45;;
28605;SDS011;46498;49.968;7.754;2023-04-25T19:02:00;12.98;;;6.00;;
28605;SDS011;46498;49.968;7.754;2023-04-25T19:07:02;23.50;;;8.55;;
28605;SDS011;46498;49.968;7.754;2023-04-25T19:12:03;23.12;;;8.82;;
28605;SDS011;46498;49.968;7.754;2023-04-25T19:17:05;22.90;;;10.60;;
28605;SDS011;46498;49.968;7.754;2023-04-25T19:22:06;8.18;;;2.75;;
28605;SDS011;46498;49.968;7.754;2023-04-25T19:27:07;4.72;;;2.35;;
28605;SDS011;46498;49.968;7.754;2023-04-25T19:32:07;16.30;;;3.20;;
28605;SDS011;46498;49.968;7.754;2023-04-25T19:37:09;16.67;;;3.83;;
28605;SDS011;46498;49.968;7.754;2023-04-25T19:42:09;8.95;;;3.15;;
28605;SDS011;46498;49.968;7.754;2023-04-25T19:47:10;18.37;;;5.07;;
28605;SDS011;46498;49.968;7.754;2023-04-25T19:52:11;16.67;;;7.32;;
28605;SDS011;46498;49.968;7.754;2023-04-25T19:57:14;21.67;;;7.22;;
28605;SDS011;46498;49.968;7.754;2023-04-25T20:02:15;10.48;;;3.58;;
28605;SDS011;46498;49.968;7.754;2023-04-25T20:07:17;10.80;;;4.40;;
28605;SDS011;46498;49.968;7.754;2023-04-25T20:12:23;7.75;;;3.83;;
28605;SDS011;46498;49.968;7.754;2023-04-25T20:17:23;14.23;;;3.92;;
28605;SDS011;46498;49.968;7.754;2023-04-25T20:22:25;16.20;;;4.05;;
28605;SDS011;46498;49.968;7.754;2023-04-25T20:27:28;14.65;;;4.37;;
28605;SDS011;46498;49.968;7.754;2023-04-25T20:32:29;10.65;;;4.62;;
28605;SDS011;46498;49.968;7.754;2023-04-25T20:37:34;9.32;;;4.40;;
28605;SDS011;46498;49.968;7.754;2023-04-25T20:42:35;7.22;;;2.65;;
28605;SDS011;46498;49.968;7.754;2023-04-25T20:47:40;8.00;;;2.55;;
28605;SDS011;46498;49.968;7.754;2023-04-25T20:52:42;7.10;;;2.65;;
28605;SDS011;46498;49.968;7.754;2023-04-25T20:57:43;8.52;;;2.10;;
28605;SDS011;46498;49.968;7.754;2023-04-25T21:02:44;3.87;;;1.92;;
28605;SDS011;46498;49.968;7.754;2023-04-25T21:07:49;8.20;;;1.80;;
28605;SDS011;46498;49.968;7.754;2023-04-25T21:12:51;9.18;;;2.05;;
28605;SDS011;46498;49.968;7.754;2023-04-25T21:17:53;10.23;;;2.42;;
28605;SDS011;46498;49.968;7.754;2023-04-25T21:22:54;7.30;;;2.22;;
28605;SDS011;46498;49.968;7.754;2023-04-25T21:27:55;7.78;;;2.37;;
28605;SDS011;46498;49.968;7.754;2023-04-25T21:32:56;10.65;;;2.58;;
28605;SDS011;46498;49.968;7.754;2023-04-25T21:37:57;8.48;;;2.08;;
28605;SDS011;46498;49.968;7.754;2023-04-25T21:42:59;16.10;;;2.50;;
28605;SDS011;46498;49.968;7.754;2023-04-25T21:48:00;7.22;;;1.85;;
28605;SDS011;46498;49.968;7.754;2023-04-25T21:53:01;10.05;;;1.98;;
28605;SDS011;46498;49.968;7.754;2023-04-25T21:58:03;8.55;;;2.17;;
28605;SDS011;46498;49.968;7.754;2023-04-25T22:03:04;5.80;;;2.50;;
28605;SDS011;46498;49.968;7.754;2023-04-25T22:08:05;11.07;;;2.45;;
28605;SDS011;46498;49.968;7.754;2023-04-25T22:13:06;6.53;;;2.37;;
28605;SDS011;46498;49.968;7.754;2023-04-25T22:18:07;8.38;;;2.35;;
28605;SDS011;46498;49.968;7.754;2023-04-25T22:23:08;13.23;;;3.40;;
28605;SDS011;46498;49.968;7.754;2023-04-25T22:28:08;9.68;;;2.60;;
28605;SDS011;46498;49.968;7.754;2023-04-25T22:33:11;10.45;;;2.60;;
28605;SDS011;46498;49.968;7.754;2023-04-25T22:38:12;12.20;;;2.47;;
28605;SDS011;46498;49.968;7.754;2023-04-25T22:43:13;8.70;;;2.50;;
28605;SDS011;46498;49.968;7.754;2023-04-25T22:48:15;7.15;;;2.37;;
28605;SDS011;46498;49.968;7.754;2023-04-25T22:53:16;9.82;;;2.58;;
28605;SDS011;46498;49.968;7.754;2023-04-25T22:58:17;8.55;;;2.55;;
28605;SDS011;46498;49.968;7.754;2023-04-25T23:03:18;6.20;;;2.05;;
28605;SDS011;46498;49.968;7.754;2023-04-25T23:08:19;7.47;;;2.37;;
28605;SDS011;46498;49.968;7.754;2023-04-25T23:13:20;5.62;;;1.77;;
28605;SDS011;46498;49.968;7.754;2023-04-25T23:18:21;6.20;;;1.83;;
28605;SDS011;46498;49.968;7.754;2023-04-25T23:23:22;5.47;;;1.85;;
28605;SDS011;46498;49.968;7.754;2023-04-25T23:28:23;7.25;;;2.00;;
28605;SDS011;46498;49.968;7.754;2023-04-25T23:33:23;6.37;;;1.80;;
28605;SDS011;46498;49.968;7.754;2023-04-25T23:38:24;6.40;;;1.70;;
28605;SDS011;46498;49.968;7.754;2023-04-25T23:43:25;4.03;;;1.83;;
28605;SDS011;46498;49.968;7.754;2023-04-25T23:48:26;5.12;;;1.50;;
28605;SDS011;46498;49.968;7.754;2023-04-25T23:53:27;9.02;;;2.28;;
28605;SDS011;46498;49.968;7.754;2023-04-25T23:58:28;6.25;;;2.25;;
